sensor_id;sensor_type;location;lat;lon;timestamp;pressure;altitude;pressure_sealevel;temperature;humidity
30935;BME280;51033;42.648;23.292;2023-03-15T00:01:29;92853.06;;;6.24;40.29
30935;BME280;51033;42.648;23.292;2023-03-15T00:03:55;92864.69;;;6.23;40.71
30935;BME280;51033;42.648;23.292;2023-03-15T00:06:20;92866.75;;;6.35;40.71
30935;BME280;51033;42.648;23.292;2023-03-15T00:08:46;92849.31;;;6.17;40.97
30935;BME280;51033;42.648;23.292;2023-03-15T00:11:13;92819.13;;;6.00;40.77
30935;BME280;51033;42.648;23.292;2023-03-15T00:13:39;92857.25;;;6.42;40.37
30935;BME280;51033;42.648;23.292;2023-03-15T00:16:04;92851.97;;;6.34;40.17
30935;BME280;51033;42.648;23.292;2023-03-15T00:18:30;92848.25;;;6.35;40.30
30935;BME280;51033;42.648;23.292;2023-03-15T00:20:56;92839.25;;;6.36;39.67
30935;BME280;51033;42.648;23.292;2023-03-15T00:23:22;92858.19;;;6.38;40.20
30935;BME280;51033;42.648;23.292;2023-03-15T00:25:48;92837.84;;;6.30;40.49
30935;BME280;51033;42.648;23.292;2023-03-15T00:28:14;92840.19;;;6.40;41.35
30935;BME280;51033;42.648;23.292;2023-03-15T00:30:40;92844.69;;;6.65;41.16
30935;BME280;51033;42.648;23.292;2023-03-15T00:33:06;92861.47;;;6.52;40.85
30935;BME280;51033;42.648;23.292;2023-03-15T00:35:32;92866.28;;;6.50;42.29
30935;BME280;51033;42.648;23.292;2023-03-15T00:38:00;92847.78;;;6.41;42.39
30935;BME280;51033;42.648;23.292;2023-03-15T00:40:26;92854.78;;;6.37;42.67
30935;BME280;51033;42.648;23.292;2023-03-15T00:42:51;92852.31;;;6.50;41.97
30935;BME280;51033;42.648;23.292;2023-03-15T00:45:18;92822.75;;;6.22;42.03
30935;BME280;51033;42.648;23.292;2023-03-15T00:47:44;92835.66;;;6.32;42.13
30935;BME280;51033;42.648;23.292;2023-03-15T00:50:10;92843.28;;;6.51;41.95
30935;BME280;51033;42.648;23.292;2023-03-15T00:52:36;92835.81;;;6.53;41.50
30935;BME280;51033;42.648;23.292;2023-03-15T00:55:02;92811.28;;;6.43;41.26
30935;BME280;51033;42.648;23.292;2023-03-15T00:57:28;92832.41;;;6.61;40.69
30935;BME280;51033;42.648;23.292;2023-03-15T00:59:53;92810.34;;;6.57;40.40
30935;BME280;51033;42.648;23.292;2023-03-15T01:02:19;92823.38;;;6.70;40.40
30935;BME280;51033;42.648;23.292;2023-03-15T01:04:48;92811.88;;;6.66;40.56
30935;BME280;51033;42.648;23.292;2023-03-15T01:07:13;92818.41;;;6.77;40.42
30935;BME280;51033;42.648;23.292;2023-03-15T01:09:39;92816.53;;;6.86;40.24
30935;BME280;51033;42.648;23.292;2023-03-15T01:12:06;92806.13;;;6.81;40.42
30935;BME280;51033;42.648;23.292;2023-03-15T01:14:31;92797.09;;;6.82;40.77
30935;BME280;51033;42.648;23.292;2023-03-15T01:16:59;92804.41;;;6.94;40.26
30935;BME280;51033;42.648;23.292;2023-03-15T01:19:24;92786.53;;;6.82;39.10
30935;BME280;51033;42.648;23.292;2023-03-15T01:21:50;92795.53;;;6.99;39.34
30935;BME280;51033;42.648;23.292;2023-03-15T01:24:15;92801.25;;;7.09;39.28
30935;BME280;51033;42.648;23.292;2023-03-15T01:26:41;92761.47;;;6.97;40.41
30935;BME280;51033;42.648;23.292;2023-03-15T01:29:06;92799.09;;;7.03;40.67
30935;BME280;51033;42.648;23.292;2023-03-15T01:31:32;92776.75;;;6.83;40.17
30935;BME280;51033;42.648;23.292;2023-03-15T01:33:58;92772.25;;;6.66;40.52
30935;BME280;51033;42.648;23.292;2023-03-15T01:36:24;92772.25;;;6.66;41.34
30935;BME280;51033;42.648;23.292;2023-03-15T01:38:50;92770.25;;;6.63;41.39
30935;BME280;51033;42.648;23.292;2023-03-15T01:41:16;92769.16;;;6.64;41.28
30935;BME280;51033;42.648;23.292;2023-03-15T01:43:42;92796.16;;;6.96;40.76
30935;BME280;51033;42.648;23.292;2023-03-15T01:53:59;92771.44;;;6.92;40.70
30935;BME280;51033;42.648;23.292;2023-03-15T01:56:27;92759.97;;;6.79;41.38
30935;BME280;51033;42.648;23.292;2023-03-15T01:58:55;92726.16;;;6.55;41.13
30935;BME280;51033;42.648;23.292;2023-03-15T02:01:22;92754.69;;;6.79;41.56
30935;BME280;51033;42.648;23.292;2023-03-15T02:03:53;92750.78;;;6.76;41.24
30935;BME280;51033;42.648;23.292;2023-03-15T02:06:21;92745.81;;;6.83;41.19
30935;BME280;51033;42.648;23.292;2023-03-15T02:08:53;92719.72;;;6.73;41.33
30935;BME280;51033;42.648;23.292;2023-03-15T02:11:24;92753.91;;;6.78;41.18
30935;BME280;51033;42.648;23.292;2023-03-15T02:13:50;92746.75;;;6.79;41.39
30935;BME280;51033;42.648;23.292;2023-03-15T02:16:17;92703.91;;;6.48;41.25
30935;BME280;51033;42.648;23.292;2023-03-15T02:18:43;92744.59;;;6.72;41.51
30935;BME280;51033;42.648;23.292;2023-03-15T02:23:43;92691.97;;;6.50;41.60
30935;BME280;51033;42.648;23.292;2023-03-15T02:26:33;92732.63;;;6.75;41.31
30935;BME280;51033;42.648;23.292;2023-03-15T02:29:00;92722.88;;;6.50;41.53
30935;BME280;51033;42.648;23.292;2023-03-15T02:31:27;92707.34;;;6.48;41.77
30935;BME280;51033;42.648;23.292;2023-03-15T02:33:52;92729.22;;;6.66;42.25
30935;BME280;51033;42.648;23.292;2023-03-15T02:36:25;92727.66;;;6.56;41.79
30935;BME280;51033;42.648;23.292;2023-03-15T02:38:51;92729.38;;;6.52;42.39
30935;BME280;51033;42.648;23.292;2023-03-15T02:41:39;92720.22;;;6.41;42.62
30935;BME280;51033;42.648;23.292;2023-03-15T02:44:13;92703.34;;;6.25;42.79
30935;BME280;51033;42.648;23.292;2023-03-15T02:46:41;92679.41;;;6.13;42.91
30935;BME280;51033;42.648;23.292;2023-03-15T02:49:07;92697.56;;;6.31;42.88
30935;BME280;51033;42.648;23.292;2023-03-15T02:51:33;92683.59;;;6.14;42.79
30935;BME280;51033;42.648;23.292;2023-03-15T02:53:59;92728.16;;;6.41;42.63
30935;BME280;51033;42.648;23.292;2023-03-15T02:56:24;92688.41;;;6.12;42.66
30935;BME280;51033;42.648;23.292;2023-03-15T02:58:50;92710.19;;;6.26;42.34
30935;BME280;51033;42.648;23.292;2023-03-15T03:01:16;92706.91;;;6.29;42.38
30935;BME280;51033;42.648;23.292;2023-03-15T03:03:44;92705.97;;;6.33;42.57
30935;BME280;51033;42.648;23.292;2023-03-15T03:06:11;92706.75;;;6.34;42.25
30935;BME280;51033;42.648;23.292;2023-03-15T03:08:37;92679.41;;;6.13;42.08
30935;BME280;51033;42.648;23.292;2023-03-15T03:11:03;92665.75;;;6.11;42.46
30935;BME280;51033;42.648;23.292;2023-03-15T03:13:29;92668.72;;;6.18;42.24
30935;BME280;51033;42.648;23.292;2023-03-15T03:15:54;92665.41;;;6.12;42.12
30935;BME280;51033;42.648;23.292;2023-03-15T03:18:29;92681.72;;;6.14;42.28
30935;BME280;51033;42.648;23.292;2023-03-15T03:20:57;92649.31;;;5.96;42.29
30935;BME280;51033;42.648;23.292;2023-03-15T03:23:24;92696.50;;;6.24;42.79
30935;BME280;51033;42.648;23.292;2023-03-15T03:25:51;92691.22;;;6.24;42.69
30935;BME280;51033;42.648;23.292;2023-03-15T03:28:19;92678.81;;;6.16;43.07
30935;BME280;51033;42.648;23.292;2023-03-15T03:30:44;92683.78;;;6.26;43.26
30935;BME280;51033;42.648;23.292;2023-03-15T03:33:10;92668.53;;;5.88;43.31
30935;BME280;51033;42.648;23.292;2023-03-15T03:35:35;92639.22;;;5.90;43.18
30935;BME280;51033;42.648;23.292;2023-03-15T03:38:00;92662.19;;;6.07;42.94
30935;BME280;51033;42.648;23.292;2023-03-15T03:40:26;92673.81;;;6.23;42.79
30935;BME280;51033;42.648;23.292;2023-03-15T03:42:51;92608.00;;;5.83;43.02
30935;BME280;51033;42.648;23.292;2023-03-15T03:45:16;92622.00;;;5.84;43.01
30935;BME280;51033;42.648;23.292;2023-03-15T03:47:42;92660.78;;;6.18;43.29
30935;BME280;51033;42.648;23.292;2023-03-15T03:50:09;92640.59;;;6.13;43.18
30935;BME280;51033;42.648;23.292;2023-03-15T03:52:34;92640.59;;;6.05;43.79
30935;BME280;51033;42.648;23.292;2023-03-15T03:55:00;92675.22;;;6.29;43.82
30935;BME280;51033;42.648;23.292;2023-03-15T03:57:25;92662.81;;;6.29;43.58
30935;BME280;51033;42.648;23.292;2023-03-15T03:59:50;92660.03;;;6.26;43.71
30935;BME280;51033;42.648;23.292;2023-03-15T04:02:16;92620.41;;;6.09;43.85
30935;BME280;51033;42.648;23.292;2023-03-15T04:04:42;92640.28;;;6.15;43.88
30935;BME280;51033;42.648;23.292;2023-03-15T04:07:07;92646.97;;;6.29;44.33
30935;BME280;51033;42.648;23.292;2023-03-15T04:09:32;92645.84;;;6.39;43.98
30935;BME280;51033;42.648;23.292;2023-03-15T04:12:03;92615.13;;;6.09;44.15
30935;BME280;51033;42.648;23.292;2023-03-15T04:14:29;92651.59;;;6.32;44.53
30935;BME280;51033;42.648;23.292;2023-03-15T04:16:54;92621.97;;;6.10;44.83
30935;BME280;51033;42.648;23.292;2023-03-15T04:19:20;92614.06;;;6.01;44.63
30935;BME280;51033;42.648;23.292;2023-03-15T04:21:45;92630.31;;;6.12;44.52
30935;BME280;51033;42.648;23.292;2023-03-15T04:24:11;92642.16;;;6.23;45.12
30935;BME280;51033;42.648;23.292;2023-03-15T04:26:37;92648.00;;;6.37;44.68
30935;BME280;51033;42.648;23.292;2023-03-15T04:29:02;92629.72;;;6.15;44.68
30935;BME280;51033;42.648;23.292;2023-03-15T04:31:28;92643.84;;;6.10;44.84
30935;BME280;51033;42.648;23.292;2023-03-15T04:33:54;92635.16;;;6.10;44.66
30935;BME280;51033;42.648;23.292;2023-03-15T04:36:21;92644.00;;;6.14;44.69
30935;BME280;51033;42.648;23.292;2023-03-15T04:38:47;92640.25;;;6.32;43.83
30935;BME280;51033;42.648;23.292;2023-03-15T04:41:14;92639.84;;;6.21;43.42
30935;BME280;51033;42.648;23.292;2023-03-15T04:43:40;92619.34;;;6.01;44.77
30935;BME280;51033;42.648;23.292;2023-03-15T04:46:06;92639.34;;;6.28;43.81
30935;BME280;51033;42.648;23.292;2023-03-15T04:48:32;92634.38;;;6.18;45.08
30935;BME280;51033;42.648;23.292;2023-03-15T04:50:57;92632.66;;;6.13;44.75
30935;BME280;51033;42.648;23.292;2023-03-15T04:53:22;92623.69;;;6.06;43.75
30935;BME280;51033;42.648;23.292;2023-03-15T04:55:48;92640.44;;;6.18;44.54
30935;BME280;51033;42.648;23.292;2023-03-15T04:58:13;92582.56;;;5.87;45.54
30935;BME280;51033;42.648;23.292;2023-03-15T05:00:38;92637.34;;;6.25;45.11
30935;BME280;51033;42.648;23.292;2023-03-15T05:03:04;92632.22;;;6.20;44.80
30935;BME280;51033;42.648;23.292;2023-03-15T05:05:32;92617.75;;;6.09;44.92
30935;BME280;51033;42.648;23.292;2023-03-15T05:07:57;92629.72;;;6.15;45.30
30935;BME280;51033;42.648;23.292;2023-03-15T05:10:23;92643.53;;;6.29;45.03
30935;BME280;51033;42.648;23.292;2023-03-15T05:12:49;92576.22;;;5.80;45.20
30935;BME280;51033;42.648;23.292;2023-03-15T05:15:15;92651.16;;;6.22;44.48
30935;BME280;51033;42.648;23.292;2023-03-15T05:17:41;92616.84;;;6.05;44.18
30935;BME280;51033;42.648;23.292;2023-03-15T05:20:07;92622.28;;;6.17;43.54
30935;BME280;51033;42.648;23.292;2023-03-15T05:22:36;92616.69;;;6.10;43.21
30935;BME280;51033;42.648;23.292;2023-03-15T05:25:02;92613.88;;;6.23;44.97
30935;BME280;51033;42.648;23.292;2023-03-15T05:27:27;92630.00;;;6.39;43.79
30935;BME280;51033;42.648;23.292;2023-03-15T05:29:53;92614.63;;;6.32;42.78
30935;BME280;51033;42.648;23.292;2023-03-15T05:32:18;92602.06;;;6.12;44.05
30935;BME280;51033;42.648;23.292;2023-03-15T05:34:44;92627.38;;;6.13;43.43
30935;BME280;51033;42.648;23.292;2023-03-15T05:37:09;92633.63;;;5.83;43.81
30935;BME280;51033;42.648;23.292;2023-03-15T05:39:36;92618.25;;;5.93;44.35
30935;BME280;51033;42.648;23.292;2023-03-15T05:42:02;92622.41;;;6.29;44.43
30935;BME280;51033;42.648;23.292;2023-03-15T05:44:27;92624.84;;;6.42;43.41
30935;BME280;51033;42.648;23.292;2023-03-15T05:46:52;92605.66;;;6.25;44.00
30935;BME280;51033;42.648;23.292;2023-03-15T05:49:18;92605.00;;;6.28;44.08
30935;BME280;51033;42.648;23.292;2023-03-15T05:51:43;92603.63;;;6.30;43.93
30935;BME280;51033;42.648;23.292;2023-03-15T05:54:09;92625.94;;;6.50;45.02
30935;BME280;51033;42.648;23.292;2023-03-15T05:56:35;92623.53;;;6.19;44.34
30935;BME280;51033;42.648;23.292;2023-03-15T05:59:00;92623.53;;;6.11;44.46
30935;BME280;51033;42.648;23.292;2023-03-15T06:01:27;92595.28;;;5.85;44.74
30935;BME280;51033;42.648;23.292;2023-03-15T06:03:52;92627.91;;;5.72;45.39
30935;BME280;51033;42.648;23.292;2023-03-15T06:06:18;92632.97;;;5.08;46.76
30935;BME280;51033;42.648;23.292;2023-03-15T06:08:43;92594.97;;;4.22;48.39
30935;BME280;51033;42.648;23.292;2023-03-15T06:11:08;92614.09;;;4.05;49.64
30935;BME280;51033;42.648;23.292;2023-03-15T06:13:34;92638.34;;;4.02;49.84
30935;BME280;51033;42.648;23.292;2023-03-15T06:15:59;92645.28;;;4.20;49.04
30935;BME280;51033;42.648;23.292;2023-03-15T06:18:25;92608.69;;;3.44;48.55
30935;BME280;51033;42.648;23.292;2023-03-15T06:20:50;92624.69;;;4.22;48.01
30935;BME280;51033;42.648;23.292;2023-03-15T06:23:15;92650.28;;;4.92;46.45
30935;BME280;51033;42.648;23.292;2023-03-15T06:25:41;92645.63;;;4.98;45.83
30935;BME280;51033;42.648;23.292;2023-03-15T06:28:06;92613.84;;;4.46;45.54
30935;BME280;51033;42.648;23.292;2023-03-15T06:30:31;92606.53;;;4.83;44.97
30935;BME280;51033;42.648;23.292;2023-03-15T06:32:57;92621.38;;;5.61;44.65
30935;BME280;51033;42.648;23.292;2023-03-15T06:35:22;92611.91;;;5.86;43.44
30935;BME280;51033;42.648;23.292;2023-03-15T06:37:48;92605.53;;;5.78;42.90
30935;BME280;51033;42.648;23.292;2023-03-15T06:40:13;92634.97;;;6.32;42.18
30935;BME280;51033;42.648;23.292;2023-03-15T06:42:39;92616.50;;;6.40;41.47
30935;BME280;51033;42.648;23.292;2023-03-15T06:45:06;92598.69;;;5.94;42.89
30935;BME280;51033;42.648;23.292;2023-03-15T06:47:33;92610.88;;;6.42;42.68
30935;BME280;51033;42.648;23.292;2023-03-15T06:49:58;92602.59;;;6.52;41.79
30935;BME280;51033;42.648;23.292;2023-03-15T06:52:24;92582.25;;;5.80;42.13
30935;BME280;51033;42.648;23.292;2023-03-15T06:54:49;92568.75;;;5.73;41.46
30935;BME280;51033;42.648;23.292;2023-03-15T06:57:15;92617.59;;;6.31;41.65
30935;BME280;51033;42.648;23.292;2023-03-15T06:59:40;92613.47;;;5.70;42.91
30935;BME280;51033;42.648;23.292;2023-03-15T07:02:12;92609.25;;;5.34;42.74
30935;BME280;51033;42.648;23.292;2023-03-15T07:04:38;92610.03;;;5.35;42.92
30935;BME280;51033;42.648;23.292;2023-03-15T07:07:03;92604.63;;;5.57;43.13
30935;BME280;51033;42.648;23.292;2023-03-15T07:09:29;92558.38;;;5.68;41.99
30935;BME280;51033;42.648;23.292;2023-03-15T07:11:55;92595.25;;;6.66;41.24
30935;BME280;51033;42.648;23.292;2023-03-15T07:14:20;92582.03;;;6.66;40.21
30935;BME280;51033;42.648;23.292;2023-03-15T07:16:46;92605.22;;;6.61;40.21
30935;BME280;51033;42.648;23.292;2023-03-15T07:19:12;92614.03;;;6.73;40.13
30935;BME280;51033;42.648;23.292;2023-03-15T07:21:37;92591.53;;;6.97;39.40
30935;BME280;51033;42.648;23.292;2023-03-15T07:24:03;92603.00;;;7.30;39.48
30935;BME280;51033;42.648;23.292;2023-03-15T07:26:28;92617.91;;;7.55;39.47
30935;BME280;51033;42.648;23.292;2023-03-15T07:28:54;92580.63;;;7.48;39.26
30935;BME280;51033;42.648;23.292;2023-03-15T07:31:19;92579.72;;;7.44;38.28
30935;BME280;51033;42.648;23.292;2023-03-15T07:33:45;92581.34;;;7.57;37.98
30935;BME280;51033;42.648;23.292;2023-03-15T07:36:10;92596.09;;;8.00;38.54
30935;BME280;51033;42.648;23.292;2023-03-15T07:38:36;92589.56;;;7.97;37.22
30935;BME280;51033;42.648;23.292;2023-03-15T07:41:03;92595.81;;;7.10;38.34
30935;BME280;51033;42.648;23.292;2023-03-15T07:43:29;92579.88;;;6.98;38.46
30935;BME280;51033;42.648;23.292;2023-03-15T07:45:55;92596.88;;;6.88;38.51
30935;BME280;51033;42.648;23.292;2023-03-15T07:48:20;92599.59;;;7.50;38.37
30935;BME280;51033;42.648;23.292;2023-03-15T07:50:46;92590.56;;;7.72;37.33
30935;BME280;51033;42.648;23.292;2023-03-15T07:53:11;92584.50;;;7.71;36.65
30935;BME280;51033;42.648;23.292;2023-03-15T07:55:37;92580.13;;;7.76;36.70
30935;BME280;51033;42.648;23.292;2023-03-15T07:58:02;92598.44;;;8.01;37.08
30935;BME280;51033;42.648;23.292;2023-03-15T08:00:28;92556.06;;;8.01;36.98
30935;BME280;51033;42.648;23.292;2023-03-15T08:02:53;92588.28;;;8.48;36.42
30935;BME280;51033;42.648;23.292;2023-03-15T08:05:19;92540.50;;;8.12;36.42
30935;BME280;51033;42.648;23.292;2023-03-15T08:07:46;92602.41;;;8.40;35.90
30935;BME280;51033;42.648;23.292;2023-03-15T08:10:12;92597.41;;;7.52;37.21
30935;BME280;51033;42.648;23.292;2023-03-15T08:12:39;92588.53;;;7.69;37.69
30935;BME280;51033;42.648;23.292;2023-03-15T08:15:13;92571.34;;;8.17;36.61
30935;BME280;51033;42.648;23.292;2023-03-15T08:17:40;92583.34;;;8.14;36.69
30935;BME280;51033;42.648;23.292;2023-03-15T08:20:06;92555.50;;;8.08;36.99
30935;BME280;51033;42.648;23.292;2023-03-15T08:22:38;92572.38;;;8.48;36.41
30935;BME280;51033;42.648;23.292;2023-03-15T08:25:04;92585.88;;;8.80;35.81
30935;BME280;51033;42.648;23.292;2023-03-15T08:27:30;92555.06;;;8.87;34.84
30935;BME280;51033;42.648;23.292;2023-03-15T08:29:56;92561.81;;;8.85;35.52
30935;BME280;51033;42.648;23.292;2023-03-15T08:32:21;92554.69;;;8.28;36.18
30935;BME280;51033;42.648;23.292;2023-03-15T08:34:46;92571.97;;;8.83;35.61
30935;BME280;51033;42.648;23.292;2023-03-15T08:37:12;92553.50;;;8.98;35.68
30935;BME280;51033;42.648;23.292;2023-03-15T08:39:38;92542.41;;;7.79;36.91
30935;BME280;51033;42.648;23.292;2023-03-15T08:42:04;92562.53;;;7.92;37.17
30935;BME280;51033;42.648;23.292;2023-03-15T08:44:30;92551.19;;;8.36;36.75
30935;BME280;51033;42.648;23.292;2023-03-15T08:46:55;92537.97;;;8.03;38.45
30935;BME280;51033;42.648;23.292;2023-03-15T08:49:20;92569.72;;;8.36;37.12
30935;BME280;51033;42.648;23.292;2023-03-15T08:51:46;92558.16;;;8.08;37.05
30935;BME280;51033;42.648;23.292;2023-03-15T08:54:11;92566.09;;;8.08;37.59
30935;BME280;51033;42.648;23.292;2023-03-15T08:56:39;92534.03;;;7.35;37.72
30935;BME280;51033;42.648;23.292;2023-03-15T08:59:04;92567.06;;;7.91;37.73
30935;BME280;51033;42.648;23.292;2023-03-15T09:01:29;92531.25;;;7.73;37.42
30935;BME280;51033;42.648;23.292;2023-03-15T09:03:55;92537.06;;;7.66;37.30
30935;BME280;51033;42.648;23.292;2023-03-15T09:06:20;92575.00;;;7.50;37.89
30935;BME280;51033;42.648;23.292;2023-03-15T09:08:46;92556.41;;;7.58;38.27
30935;BME280;51033;42.648;23.292;2023-03-15T09:11:11;92543.91;;;7.26;38.49
30935;BME280;51033;42.648;23.292;2023-03-15T09:13:37;92537.19;;;7.49;37.61
30935;BME280;51033;42.648;23.292;2023-03-15T09:16:03;92565.47;;;8.11;37.54
30935;BME280;51033;42.648;23.292;2023-03-15T09:18:29;92573.56;;;7.94;38.01
30935;BME280;51033;42.648;23.292;2023-03-15T09:20:55;92542.66;;;7.86;37.57
30935;BME280;51033;42.648;23.292;2023-03-15T09:23:21;92575.06;;;7.83;38.21
30935;BME280;51033;42.648;23.292;2023-03-15T09:25:46;92559.97;;;7.62;38.37
30935;BME280;51033;42.648;23.292;2023-03-15T09:28:12;92579.47;;;7.58;38.12
30935;BME280;51033;42.648;23.292;2023-03-15T09:30:39;92544.19;;;7.33;38.47
30935;BME280;51033;42.648;23.292;2023-03-15T09:33:05;92576.34;;;7.35;38.98
30935;BME280;51033;42.648;23.292;2023-03-15T09:35:31;92551.84;;;7.67;38.53
30935;BME280;51033;42.648;23.292;2023-03-15T09:37:58;92559.00;;;7.67;38.30
30935;BME280;51033;42.648;23.292;2023-03-15T09:40:27;92552.38;;;7.94;38.04
30935;BME280;51033;42.648;23.292;2023-03-15T09:48:34;92547.63;;;7.66;38.84
30935;BME280;51033;42.648;23.292;2023-03-15T09:53:59;92544.03;;;7.50;39.86
30935;BME280;51033;42.648;23.292;2023-03-15T09:56:41;92541.56;;;7.66;38.84
30935;BME280;51033;42.648;23.292;2023-03-15T09:59:10;92526.19;;;7.26;40.31
30935;BME280;51033;42.648;23.292;2023-03-15T10:01:38;92532.94;;;7.36;39.67
30935;BME280;51033;42.648;23.292;2023-03-15T10:04:13;92547.75;;;7.91;39.19
30935;BME280;51033;42.648;23.292;2023-03-15T10:06:47;92551.59;;;7.93;38.96
30935;BME280;51033;42.648;23.292;2023-03-15T10:09:20;92527.72;;;7.48;39.63
30935;BME280;51033;42.648;23.292;2023-03-15T10:14:39;92546.38;;;7.73;39.49
30935;BME280;51033;42.648;23.292;2023-03-15T10:17:14;92546.41;;;7.85;39.09
30935;BME280;51033;42.648;23.292;2023-03-15T10:19:49;92555.59;;;7.87;39.20
30935;BME280;51033;42.648;23.292;2023-03-15T10:22:20;92549.91;;;7.77;39.45
30935;BME280;51033;42.648;23.292;2023-03-15T10:27:27;92529.91;;;7.67;39.14
30935;BME280;51033;42.648;23.292;2023-03-15T10:29:57;92549.91;;;7.77;39.27
30935;BME280;51033;42.648;23.292;2023-03-15T10:32:27;92518.78;;;7.73;39.00
30935;BME280;51033;42.648;23.292;2023-03-15T10:34:55;92478.56;;;7.47;38.79
30935;BME280;51033;42.648;23.292;2023-03-15T10:37:24;92544.63;;;7.77;38.49
30935;BME280;51033;42.648;23.292;2023-03-15T10:39:54;92540.88;;;7.78;39.14
30935;BME280;51033;42.648;23.292;2023-03-15T10:42:32;92505.56;;;7.73;38.44
30935;BME280;51033;42.648;23.292;2023-03-15T10:44:59;92533.91;;;8.18;38.51
30935;BME280;51033;42.648;23.292;2023-03-15T10:47:41;92540.34;;;8.29;38.33
30935;BME280;51033;42.648;23.292;2023-03-15T10:50:09;92538.09;;;8.07;38.83
30935;BME280;51033;42.648;23.292;2023-03-15T10:52:39;92521.09;;;8.08;38.70
30935;BME280;51033;42.648;23.292;2023-03-15T10:55:17;92550.34;;;8.11;38.37
30935;BME280;51033;42.648;23.292;2023-03-15T10:57:55;92544.97;;;8.32;38.30
30935;BME280;51033;42.648;23.292;2023-03-15T11:00:27;92533.31;;;8.70;37.92
30935;BME280;51033;42.648;23.292;2023-03-15T11:03:18;92375.25;;;8.13;37.49
30935;BME280;51033;42.648;23.292;2023-03-15T11:05:49;92529.13;;;9.45;36.66
30935;BME280;51033;42.648;23.292;2023-03-15T11:08:18;92530.88;;;9.13;36.66
30935;BME280;51033;42.648;23.292;2023-03-15T11:10:54;92494.00;;;9.36;36.56
30935;BME280;51033;42.648;23.292;2023-03-15T11:13:37;92516.44;;;9.94;36.44
30935;BME280;51033;42.648;23.292;2023-03-15T11:16:07;92523.88;;;9.88;35.58
30935;BME280;51033;42.648;23.292;2023-03-15T11:18:58;92488.06;;;9.55;35.39
30935;BME280;51033;42.648;23.292;2023-03-15T11:21:29;92530.31;;;10.03;38.05
30935;BME280;51033;42.648;23.292;2023-03-15T11:23:57;92500.19;;;10.27;36.53
30935;BME280;51033;42.648;23.292;2023-03-15T11:26:26;92525.97;;;10.39;38.35
30935;BME280;51033;42.648;23.292;2023-03-15T11:28:55;92532.25;;;10.18;39.35
30935;BME280;51033;42.648;23.292;2023-03-15T11:31:25;92531.03;;;10.00;38.81
30935;BME280;51033;42.648;23.292;2023-03-15T11:34:01;92533.19;;;10.10;38.70
30935;BME280;51033;42.648;23.292;2023-03-15T11:36:29;92521.94;;;9.73;39.02
30935;BME280;51033;42.648;23.292;2023-03-15T11:38:58;92496.94;;;10.02;38.28
30935;BME280;51033;42.648;23.292;2023-03-15T11:41:47;92514.94;;;10.24;38.07
30935;BME280;51033;42.648;23.292;2023-03-15T11:44:39;92499.59;;;10.33;38.01
30935;BME280;51033;42.648;23.292;2023-03-15T11:47:39;92515.81;;;10.28;38.55
30935;BME280;51033;42.648;23.292;2023-03-15T11:50:11;92496.94;;;10.02;37.87
30935;BME280;51033;42.648;23.292;2023-03-15T11:52:37;92511.81;;;9.91;38.55
30935;BME280;51033;42.648;23.292;2023-03-15T11:55:04;92484.75;;;10.01;39.68
30935;BME280;51033;42.648;23.292;2023-03-15T11:57:46;92494.53;;;10.28;38.96
30935;BME280;51033;42.648;23.292;2023-03-15T12:00:51;92512.75;;;9.99;39.95
30935;BME280;51033;42.648;23.292;2023-03-15T12:03:27;92506.66;;;9.98;40.17
30935;BME280;51033;42.648;23.292;2023-03-15T12:06:01;92503.34;;;10.01;40.23
30935;BME280;51033;42.648;23.292;2023-03-15T12:10:59;92485.63;;;10.05;39.75
30935;BME280;51033;42.648;23.292;2023-03-15T12:13:29;92486.97;;;9.99;39.81
30935;BME280;51033;42.648;23.292;2023-03-15T12:15:56;92498.38;;;10.00;38.98
30935;BME280;51033;42.648;23.292;2023-03-15T12:18:28;92475.94;;;9.97;39.75
30935;BME280;51033;42.648;23.292;2023-03-15T12:21:10;92483.91;;;10.28;39.71
30935;BME280;51033;42.648;23.292;2023-03-15T12:23:40;92485.50;;;10.45;39.21
30935;BME280;51033;42.648;23.292;2023-03-15T12:26:12;92486.16;;;10.26;39.87
30935;BME280;51033;42.648;23.292;2023-03-15T12:29:33;92490.84;;;10.33;39.61
30935;BME280;51033;42.648;23.292;2023-03-15T12:34:14;92465.41;;;10.16;39.52
30935;BME280;51033;42.648;23.292;2023-03-15T12:36:46;92447.75;;;10.08;39.68
30935;BME280;51033;42.648;23.292;2023-03-15T12:41:42;92452.22;;;10.20;39.40
30935;BME280;51033;42.648;23.292;2023-03-15T12:49:28;92456.53;;;10.40;39.07
30935;BME280;51033;42.648;23.292;2023-03-15T12:52:03;92474.44;;;10.59;38.60
30935;BME280;51033;42.648;23.292;2023-03-15T12:54:33;92446.41;;;10.46;37.72
30935;BME280;51033;42.648;23.292;2023-03-15T12:57:03;92456.41;;;10.52;37.65
30935;BME280;51033;42.648;23.292;2023-03-15T12:59:37;92465.75;;;10.62;37.23
30935;BME280;51033;42.648;23.292;2023-03-15T13:02:28;92440.56;;;10.40;37.77
30935;BME280;51033;42.648;23.292;2023-03-15T13:10:43;92463.84;;;10.78;37.38
30935;BME280;51033;42.648;23.292;2023-03-15T13:18:20;92427.47;;;10.82;36.90
30935;BME280;51033;42.648;23.292;2023-03-15T13:21:02;92447.38;;;9.94;37.85
30935;BME280;51033;42.648;23.292;2023-03-15T13:23:32;92446.72;;;10.28;37.65
30935;BME280;51033;42.648;23.292;2023-03-15T13:29:07;92420.69;;;9.87;37.75
30935;BME280;51033;42.648;23.292;2023-03-15T13:31:36;92465.72;;;9.99;38.06
30935;BME280;51033;42.648;23.292;2023-03-15T13:34:12;92445.94;;;9.81;38.71
30935;BME280;51033;42.648;23.292;2023-03-15T13:36:40;92477.53;;;10.45;38.02
30935;BME280;51033;42.648;23.292;2023-03-15T13:39:17;92463.09;;;10.15;38.20
30935;BME280;51033;42.648;23.292;2023-03-15T13:41:43;92453.25;;;10.15;36.97
30935;BME280;51033;42.648;23.292;2023-03-15T13:44:20;92421.09;;;9.89;37.80
30935;BME280;51033;42.648;23.292;2023-03-15T13:46:48;92424.94;;;9.32;38.87
30935;BME280;51033;42.648;23.292;2023-03-15T13:49:14;92441.34;;;9.66;38.99
30935;BME280;51033;42.648;23.292;2023-03-15T13:51:40;92464.38;;;10.05;38.72
30935;BME280;51033;42.648;23.292;2023-03-15T13:59:21;92459.81;;;9.90;38.56
30935;BME280;51033;42.648;23.292;2023-03-15T14:01:48;92483.13;;;9.97;39.16